createdAt,value
2023-02-06T00:01:18.670Z,3.79
2023-02-06T00:03:45.987Z,3.80
2023-02-06T00:06:13.233Z,3.81
2023-02-06T00:08:41.007Z,3.85
2023-02-06T00:11:11.628Z,3.88
2023-02-06T00:13:39.406Z,3.92
2023-02-06T00:16:18.759Z,3.95
2023-02-06T00:18:46.903Z,3.95
2023-02-06T00:21:14.546Z,3.97
2023-02-06T00:23:42.497Z,3.98
2023-02-06T00:26:09.842Z,3.99
2023-02-06T00:28:40.458Z,3.99
2023-02-06T00:31:09.274Z,4.00
2023-02-06T00:33:37.247Z,3.99
2023-02-06T00:36:05.286Z,3.97
2023-02-06T00:38:33.194Z,3.94
2023-02-06T00:41:00.490Z,3.92
2023-02-06T00:43:28.218Z,3.87
2023-02-06T00:45:58.060Z,3.86
2023-02-06T00:48:25.450Z,3.80
2023-02-06T00:50:53.655Z,3.78
2023-02-06T00:53:21.863Z,3.75
2023-02-06T00:55:49.183Z,3.70
2023-02-06T00:58:16.522Z,3.66
2023-02-06T01:00:44.859Z,3.64
2023-02-06T01:03:12.444Z,3.62
2023-02-06T01:05:39.713Z,3.60
2023-02-06T01:08:07.072Z,3.61
2023-02-06T01:10:34.536Z,3.63
2023-02-06T01:13:02.198Z,3.64
2023-02-06T01:15:29.414Z,3.61
2023-02-06T01:17:56.957Z,3.58
2023-02-06T01:20:24.795Z,3.56
2023-02-06T01:22:52.367Z,3.54
2023-02-06T01:25:19.826Z,3.53
2023-02-06T01:27:48.162Z,3.52
2023-02-06T01:30:15.463Z,3.53
2023-02-06T01:32:43.253Z,3.53
2023-02-06T01:35:12.873Z,3.53
2023-02-06T01:37:41.616Z,3.53
2023-02-06T01:40:13.279Z,3.53
2023-02-06T01:42:41.100Z,3.52
2023-02-06T01:45:26.539Z,3.50
2023-02-06T01:48:02.179Z,3.49
2023-02-06T01:50:32.822Z,3.48
2023-02-06T01:53:01.286Z,3.44
2023-02-06T01:55:30.069Z,3.40
2023-02-06T01:58:01.899Z,3.36
2023-02-06T02:00:29.304Z,3.32
2023-02-06T02:02:56.751Z,3.28
2023-02-06T02:05:24.100Z,3.22
2023-02-06T02:08:01.341Z,3.16
2023-02-06T02:10:32.451Z,3.10
2023-02-06T02:12:59.720Z,3.06
2023-02-06T02:15:47.730Z,3.00
2023-02-06T02:18:33.208Z,2.92
2023-02-06T02:21:14.574Z,2.86
2023-02-06T02:23:51.566Z,2.77
2023-02-06T02:26:53.254Z,2.70
2023-02-06T02:29:49.286Z,2.63
2023-02-06T02:32:45.303Z,2.56
2023-02-06T02:35:24.581Z,2.48
2023-02-06T02:38:14.465Z,2.43
2023-02-06T02:40:44.897Z,2.36
2023-02-06T02:43:35.422Z,2.29
2023-02-06T02:46:15.348Z,2.25
2023-02-06T02:48:47.412Z,2.20
2023-02-06T02:51:16.994Z,2.16
2023-02-06T02:53:44.604Z,2.12
2023-02-06T02:56:24.013Z,2.09
2023-02-06T02:58:59.932Z,2.06
2023-02-06T03:01:54.343Z,2.04
2023-02-06T03:04:31.227Z,2.03
2023-02-06T03:07:33.342Z,2.02
2023-02-06T03:10:18.837Z,2.00
2023-02-06T03:13:03.304Z,2.00
2023-02-06T03:15:33.903Z,2.03
2023-02-06T03:18:04.160Z,2.03
2023-02-06T03:20:32.961Z,2.02
2023-02-06T03:23:02.953Z,2.02
2023-02-06T03:25:42.688Z,2.01
2023-02-06T03:28:17.846Z,2.02
2023-02-06T03:30:49.117Z,2.01
2023-02-06T03:33:19.704Z,2.00
2023-02-06T03:35:47.159Z,1.99
2023-02-06T03:38:15.054Z,1.99
2023-02-06T03:40:47.464Z,1.98
2023-02-06T03:43:18.833Z,1.98
2023-02-06T03:45:52.016Z,1.98
2023-02-06T03:48:27.663Z,1.97
2023-02-06T03:50:57.794Z,1.97
2023-02-06T03:53:27.300Z,1.95
2023-02-06T03:55:59.342Z,1.98
2023-02-06T03:58:26.916Z,1.96
2023-02-06T04:00:54.429Z,1.98
2023-02-06T04:03:22.932Z,1.97
2023-02-06T04:05:50.262Z,1.98
2023-02-06T04:08:17.602Z,1.98
2023-02-06T04:10:44.958Z,1.99
2023-02-06T04:13:13.322Z,1.99
2023-02-06T04:15:40.602Z,2.00
2023-02-06T04:18:07.915Z,2.01
2023-02-06T04:20:40.798Z,2.02
2023-02-06T04:23:08.969Z,2.02
2023-02-06T04:25:36.520Z,2.03
2023-02-06T04:28:04.831Z,2.02
2023-02-06T04:30:32.499Z,2.04
2023-02-06T04:32:59.840Z,2.06
2023-02-06T04:35:27.185Z,2.07
2023-02-06T04:37:54.727Z,2.08
2023-02-06T04:40:22.119Z,2.09
2023-02-06T04:42:49.501Z,2.10
2023-02-06T04:45:16.919Z,2.12
2023-02-06T04:47:44.287Z,2.13
2023-02-06T04:50:11.621Z,2.13
2023-02-06T04:52:39.757Z,2.16
2023-02-06T04:55:07.632Z,2.17
2023-02-06T04:57:35.014Z,2.18
2023-02-06T05:00:02.450Z,2.19
2023-02-06T05:02:29.882Z,2.21
2023-02-06T05:04:57.172Z,2.23
2023-02-06T05:07:25.041Z,2.24
2023-02-06T05:09:53.416Z,2.25
2023-02-06T05:12:20.887Z,2.26
2023-02-06T05:14:48.150Z,2.28
2023-02-06T05:17:15.441Z,2.29
2023-02-06T05:19:42.836Z,2.30
2023-02-06T05:22:12.942Z,2.31
2023-02-06T05:24:40.116Z,2.31
2023-02-06T05:27:07.546Z,2.31
2023-02-06T05:29:34.702Z,2.32
2023-02-06T05:32:02.221Z,2.33
2023-02-06T05:34:29.584Z,2.34
2023-02-06T05:36:56.939Z,2.35
2023-02-06T05:39:24.571Z,2.36
2023-02-06T05:41:51.795Z,2.36
2023-02-06T05:44:19.284Z,2.37
2023-02-06T05:46:48.441Z,2.37
2023-02-06T05:49:16.067Z,2.38
2023-02-06T05:51:43.234Z,2.39
2023-02-06T05:54:10.475Z,2.39
2023-02-06T05:56:39.881Z,2.39
2023-02-06T05:59:07.192Z,2.38
2023-02-06T06:01:34.527Z,2.39
2023-02-06T06:04:02.175Z,2.37
2023-02-06T06:06:29.536Z,2.34
2023-02-06T06:08:56.777Z,2.34
2023-02-06T06:11:24.084Z,2.34
2023-02-06T06:13:51.377Z,2.36
2023-02-06T06:16:18.796Z,2.34
2023-02-06T06:18:46.107Z,2.33
2023-02-06T06:21:13.692Z,2.32
2023-02-06T06:23:40.997Z,2.31
2023-02-06T06:26:08.302Z,2.31
2023-02-06T06:28:40.473Z,2.31
2023-02-06T06:31:11.941Z,2.31
2023-02-06T06:33:40.081Z,2.30
2023-02-06T06:36:09.513Z,2.30
2023-02-06T06:38:37.400Z,2.31
2023-02-06T06:41:05.619Z,2.31
2023-02-06T06:43:34.266Z,2.33
2023-02-06T06:46:01.856Z,2.36
2023-02-06T06:48:29.183Z,2.39
2023-02-06T06:50:56.729Z,2.40
2023-02-06T06:53:24.023Z,2.41
2023-02-06T06:55:51.278Z,2.42
2023-02-06T06:58:18.637Z,2.42
2023-02-06T07:00:46.159Z,2.44
2023-02-06T07:03:13.547Z,2.44
2023-02-06T07:05:41.605Z,2.46
2023-02-06T07:08:09.316Z,2.47
2023-02-06T07:10:36.762Z,2.47
2023-02-06T07:13:04.484Z,2.48
2023-02-06T07:15:32.386Z,2.47
2023-02-06T07:17:59.865Z,2.47
2023-02-06T07:20:27.198Z,2.47
2023-02-06T07:22:54.630Z,2.49
2023-02-06T07:25:22.015Z,2.48
2023-02-06T07:27:49.423Z,2.49
2023-02-06T07:30:16.774Z,2.51
2023-02-06T07:32:44.225Z,2.53
2023-02-06T07:35:11.459Z,2.56
2023-02-06T07:37:38.771Z,2.58
2023-02-06T07:40:07.077Z,2.60
2023-02-06T07:42:34.428Z,2.62
2023-02-06T07:45:10.892Z,2.66
2023-02-06T07:47:38.406Z,2.67
2023-02-06T07:50:06.229Z,2.68
2023-02-06T07:52:33.583Z,2.71
2023-02-06T07:55:00.812Z,2.73
2023-02-06T07:57:28.103Z,2.77
2023-02-06T07:59:55.399Z,2.80
2023-02-06T08:02:22.745Z,2.85
2023-02-06T08:04:49.977Z,2.89
2023-02-06T08:07:18.038Z,2.93
2023-02-06T08:09:45.401Z,2.97
2023-02-06T08:12:12.688Z,3.03
2023-02-06T08:14:40.360Z,3.08
2023-02-06T08:17:08.129Z,3.13
2023-02-06T08:19:35.382Z,3.20
2023-02-06T08:22:02.839Z,3.26
2023-02-06T08:24:30.360Z,3.30
2023-02-06T08:26:57.696Z,3.36
2023-02-06T08:29:25.709Z,3.41
2023-02-06T08:31:53.329Z,3.45
2023-02-06T08:34:20.644Z,3.52
2023-02-06T08:36:48.420Z,3.56
2023-02-06T08:39:15.954Z,3.60
2023-02-06T08:41:44.433Z,3.66
2023-02-06T08:44:14.658Z,3.73
2023-02-06T08:46:43.477Z,3.78
2023-02-06T08:49:19.797Z,3.85
2023-02-06T08:51:49.749Z,3.91
2023-02-06T08:54:19.449Z,3.97
2023-02-06T08:56:47.485Z,4.02
2023-02-06T08:59:16.388Z,4.08
2023-02-06T09:01:45.800Z,4.14
2023-02-06T09:04:14.198Z,4.18
2023-02-06T09:06:44.091Z,4.22
2023-02-06T09:09:12.872Z,4.27
2023-02-06T09:11:40.517Z,4.30
2023-02-06T09:14:11.643Z,4.35
2023-02-06T09:16:38.923Z,4.38
2023-02-06T09:19:07.178Z,4.42
2023-02-06T09:21:36.599Z,4.47
2023-02-06T09:24:07.045Z,4.53
2023-02-06T09:26:53.387Z,4.60
2023-02-06T09:29:27.278Z,4.66
2023-02-06T09:31:54.699Z,4.71
2023-02-06T09:34:22.109Z,4.78
2023-02-06T09:36:49.544Z,4.83
2023-02-06T09:39:16.907Z,4.90
2023-02-06T09:42:11.466Z,4.95
2023-02-06T09:44:42.513Z,5.01
2023-02-06T09:47:32.556Z,5.07
2023-02-06T09:50:02.976Z,5.14
2023-02-06T09:52:55.949Z,5.21
2023-02-06T09:55:29.510Z,5.27
2023-02-06T09:58:19.278Z,5.35
2023-02-06T10:01:15.582Z,5.41
2023-02-06T10:03:46.099Z,5.46
2023-02-06T10:06:22.168Z,5.54
2023-02-06T10:08:54.623Z,5.60
2023-02-06T10:11:38.826Z,5.67
2023-02-06T10:14:22.462Z,5.74
2023-02-06T10:17:01.253Z,5.78
2023-02-06T10:19:46.850Z,5.83
2023-02-06T10:22:21.204Z,5.86
2023-02-06T10:25:38.026Z,5.90
2023-02-06T10:28:27.890Z,5.92
2023-02-06T10:30:58.239Z,5.94
2023-02-06T10:33:53.079Z,6.01
2023-02-06T10:36:26.326Z,6.05
2023-02-06T10:39:15.254Z,6.11
2023-02-06T10:41:54.363Z,6.16
2023-02-06T10:44:28.652Z,6.23
2023-02-06T10:46:57.233Z,6.33
2023-02-06T10:49:35.523Z,6.40
2023-02-06T10:52:23.846Z,6.50
2023-02-06T10:54:55.497Z,6.55
2023-02-06T10:57:25.130Z,6.60
2023-02-06T10:59:55.797Z,6.63
2023-02-06T11:02:23.169Z,6.65
2023-02-06T11:05:22.900Z,6.63
2023-02-06T11:07:56.630Z,6.67
2023-02-06T11:10:26.911Z,6.66
2023-02-06T11:13:13.990Z,6.66
2023-02-06T11:15:52.377Z,6.63
2023-02-06T11:18:24.575Z,6.66
2023-02-06T11:20:53.186Z,6.71
2023-02-06T11:23:28.220Z,6.76
2023-02-06T11:26:05.840Z,6.79
2023-02-06T11:28:35.539Z,6.85
2023-02-06T11:31:08.317Z,6.86
2023-02-06T11:33:42.501Z,6.86
2023-02-06T11:36:27.805Z,6.87
2023-02-06T11:39:00.777Z,6.86
2023-02-06T11:41:29.935Z,6.82
2023-02-06T11:44:02.820Z,6.78
2023-02-06T11:46:35.191Z,6.75
2023-02-06T11:49:21.948Z,6.74
2023-02-06T11:51:51.945Z,6.75
2023-02-06T11:54:38.572Z,6.71
2023-02-06T11:57:18.040Z,6.70
2023-02-06T12:00:00.851Z,6.68
2023-02-06T12:02:38.257Z,6.70
2023-02-06T12:05:14.842Z,6.74
2023-02-06T12:07:49.980Z,6.78
2023-02-06T12:10:19.801Z,6.77
2023-02-06T12:13:08.887Z,6.80
2023-02-06T12:15:48.167Z,6.86
2023-02-06T12:18:28.971Z,6.87
2023-02-06T12:21:00.281Z,6.86
2023-02-06T12:23:39.904Z,6.80
2023-02-06T12:26:17.920Z,6.81
2023-02-06T12:28:59.657Z,6.85
2023-02-06T12:31:34.773Z,6.87
2023-02-06T12:34:22.701Z,6.87
2023-02-06T12:37:08.850Z,6.89
2023-02-06T12:39:37.090Z,6.91
2023-02-06T12:42:29.194Z,6.95
2023-02-06T12:45:12.722Z,6.97
2023-02-06T12:47:44.305Z,6.95
2023-02-06T12:50:30.440Z,6.92
2023-02-06T12:53:14.526Z,6.89
2023-02-06T12:55:52.888Z,6.89
2023-02-06T12:58:28.228Z,6.87
2023-02-06T13:01:20.804Z,6.85
2023-02-06T13:03:57.183Z,6.82
2023-02-06T13:06:27.730Z,6.78
2023-02-06T13:09:01.030Z,6.77
2023-02-06T13:11:39.081Z,6.78
2023-02-06T13:14:33.008Z,6.78
2023-02-06T13:17:10.454Z,6.73
2023-02-06T13:19:38.071Z,6.69
2023-02-06T13:22:08.434Z,6.66
2023-02-06T13:24:40.348Z,6.65
2023-02-06T13:27:07.635Z,6.67
2023-02-06T13:29:40.041Z,6.69
2023-02-06T13:32:18.661Z,6.70
2023-02-06T13:34:49.238Z,6.70
2023-02-06T13:37:40.400Z,6.67
2023-02-06T13:40:35.366Z,6.64
2023-02-06T13:43:26.263Z,6.61
2023-02-06T13:45:59.408Z,6.55
2023-02-06T13:48:51.513Z,6.53
2023-02-06T13:51:43.754Z,6.49
2023-02-06T13:54:32.789Z,6.44
2023-02-06T13:57:39.963Z,6.42
2023-02-06T14:00:26.693Z,6.41
2023-02-06T14:03:15.538Z,6.40
2023-02-06T14:05:58.005Z,6.40
2023-02-06T14:08:37.304Z,6.41
2023-02-06T14:11:19.866Z,6.39
2023-02-06T14:14:17.976Z,6.36
2023-02-06T14:16:49.753Z,6.34
2023-02-06T14:19:42.864Z,6.31
2023-02-06T14:22:16.041Z,6.29
2023-02-06T14:25:17.565Z,6.25
2023-02-06T14:27:48.302Z,6.22
2023-02-06T14:30:42.471Z,6.19
2023-02-06T14:33:47.742Z,6.19
2023-02-06T14:36:45.228Z,6.17
2023-02-06T14:39:50.196Z,6.13
2023-02-06T14:42:20.838Z,6.08
2023-02-06T14:44:51.737Z,6.03
2023-02-06T14:47:24.571Z,6.02
2023-02-06T14:49:54.076Z,6.02
2023-02-06T14:52:30.112Z,5.99
2023-02-06T14:54:57.659Z,5.96
2023-02-06T14:57:28.054Z,5.96
2023-02-06T14:59:58.916Z,5.95
2023-02-06T15:02:28.369Z,5.94
2023-02-06T15:04:56.723Z,5.91
2023-02-06T15:07:29.921Z,5.90
2023-02-06T15:10:13.915Z,5.89
2023-02-06T15:12:41.805Z,5.88
2023-02-06T15:15:22.345Z,5.86
2023-02-06T15:18:07.877Z,5.84
2023-02-06T15:20:44.225Z,5.81
2023-02-06T15:23:38.402Z,5.79
2023-02-06T15:26:28.314Z,5.75
2023-02-06T15:28:58.382Z,5.72
2023-02-06T15:31:27.423Z,5.71
2023-02-06T15:33:58.453Z,5.69
2023-02-06T15:36:31.196Z,5.67
2023-02-06T15:39:05.449Z,5.66
2023-02-06T15:41:34.608Z,5.64
2023-02-06T15:44:09.642Z,5.61
2023-02-06T15:46:38.126Z,5.58
2023-02-06T15:49:06.959Z,5.56
2023-02-06T15:51:53.775Z,5.53
2023-02-06T15:54:24.286Z,5.49
2023-02-06T15:56:56.873Z,5.46
2023-02-06T15:59:27.361Z,5.42
2023-02-06T16:01:58.388Z,5.39
2023-02-06T16:04:37.506Z,5.35
2023-02-06T16:07:18.356Z,5.29
2023-02-06T16:10:04.537Z,5.24
2023-02-06T16:12:37.629Z,5.18
2023-02-06T16:15:34.977Z,5.12
2023-02-06T16:18:29.030Z,5.04
2023-02-06T16:21:18.773Z,4.97
2023-02-06T16:23:54.156Z,4.91
2023-02-06T16:26:27.176Z,4.86
2023-02-06T16:29:00.240Z,4.80
2023-02-06T16:31:29.605Z,4.73
2023-02-06T16:34:03.442Z,4.68
2023-02-06T16:36:33.029Z,4.64
2023-02-06T16:39:04.330Z,4.59
2023-02-06T16:41:35.594Z,4.53
2023-02-06T16:44:04.975Z,4.47
2023-02-06T16:46:32.510Z,4.43
2023-02-06T16:49:00.547Z,4.40
2023-02-06T16:51:30.015Z,4.36
2023-02-06T16:53:58.598Z,4.32
2023-02-06T16:56:26.059Z,4.25
2023-02-06T16:58:53.534Z,4.17
2023-02-06T17:01:25.819Z,4.10
2023-02-06T17:03:54.399Z,4.04
2023-02-06T17:06:24.965Z,3.99
2023-02-06T17:08:54.761Z,3.92
2023-02-06T17:11:22.154Z,3.86
2023-02-06T17:13:49.674Z,3.77
2023-02-06T17:16:20.397Z,3.68
2023-02-06T17:18:48.494Z,3.59
2023-02-06T17:21:18.561Z,3.51
2023-02-06T17:23:46.513Z,3.42
2023-02-06T17:26:18.098Z,3.35
2023-02-06T17:28:45.934Z,3.28
2023-02-06T17:31:13.508Z,3.21
2023-02-06T17:33:41.184Z,3.12
2023-02-06T17:36:15.334Z,3.07
2023-02-06T17:38:42.711Z,3.02
2023-02-06T17:41:10.070Z,2.97
2023-02-06T17:43:37.613Z,2.91
2023-02-06T17:46:06.424Z,2.87
2023-02-06T17:48:36.696Z,2.82
2023-02-06T17:51:05.400Z,2.78
2023-02-06T17:53:36.055Z,2.73
2023-02-06T17:56:12.801Z,2.69
2023-02-06T17:58:41.566Z,2.64
2023-02-06T18:01:18.407Z,2.59
2023-02-06T18:03:47.949Z,2.54
2023-02-06T18:06:15.549Z,2.53
2023-02-06T18:08:43.812Z,2.47
2023-02-06T18:11:16.479Z,2.46
2023-02-06T18:13:45.376Z,2.42
2023-02-06T18:16:22.083Z,2.39
2023-02-06T18:18:50.252Z,2.35
2023-02-06T18:21:19.605Z,2.32
2023-02-06T18:23:48.560Z,2.30
2023-02-06T18:26:17.171Z,2.28
2023-02-06T18:28:44.521Z,2.25
2023-02-06T18:31:41.683Z,2.27
2023-02-06T18:34:09.032Z,2.25
2023-02-06T18:36:37.378Z,2.21
2023-02-06T18:39:05.527Z,2.18
2023-02-06T18:41:51.254Z,2.12
2023-02-06T18:44:18.652Z,2.08
2023-02-06T18:46:46.056Z,2.04
2023-02-06T18:49:13.617Z,2.01
2023-02-06T18:51:40.834Z,1.96
2023-02-06T18:54:10.165Z,1.93
2023-02-06T18:56:38.616Z,1.89
2023-02-06T18:59:06.432Z,1.85
2023-02-06T19:01:33.897Z,1.82
2023-02-06T19:04:01.507Z,1.79
2023-02-06T19:06:34.138Z,1.76
2023-02-06T19:09:04.298Z,1.72
2023-02-06T19:11:31.587Z,1.70
2023-02-06T19:13:59.002Z,1.67
2023-02-06T19:16:30.365Z,1.65
2023-02-06T19:18:57.835Z,1.62
2023-02-06T19:21:26.216Z,1.59
2023-02-06T19:23:58.467Z,1.56
2023-02-06T19:26:26.955Z,1.52
2023-02-06T19:28:55.338Z,1.48
2023-02-06T19:31:25.899Z,1.45
2023-02-06T19:33:56.113Z,1.44
2023-02-06T19:36:25.798Z,1.41
2023-02-06T19:38:59.184Z,1.39
2023-02-06T19:41:28.910Z,1.37
2023-02-06T19:43:57.457Z,1.34
2023-02-06T19:46:27.323Z,1.32
2023-02-06T19:48:56.580Z,1.28
2023-02-06T19:51:30.296Z,1.26
2023-02-06T19:53:59.136Z,1.23
2023-02-06T19:56:31.063Z,1.20
2023-02-06T19:59:00.797Z,1.17
2023-02-06T20:01:30.492Z,1.14
2023-02-06T20:04:02.498Z,1.11
2023-02-06T20:06:34.858Z,1.09
2023-02-06T20:09:04.015Z,1.08
2023-02-06T20:11:32.768Z,1.08
2023-02-06T20:14:00.199Z,1.06
2023-02-06T20:16:31.580Z,1.04
2023-02-06T20:19:04.913Z,1.04
2023-02-06T20:21:36.489Z,1.03
2023-02-06T20:24:07.821Z,1.01
2023-02-06T20:26:38.060Z,0.99
2023-02-06T20:29:07.112Z,0.99
2023-02-06T20:31:42.118Z,1.00
2023-02-06T20:34:09.604Z,0.96
2023-02-06T20:36:36.934Z,0.96
2023-02-06T20:39:04.481Z,0.97
2023-02-06T20:41:32.465Z,0.97
2023-02-06T20:44:01.739Z,0.98
2023-02-06T20:46:32.710Z,0.96
2023-02-06T20:49:02.346Z,0.96
2023-02-06T20:51:31.638Z,0.97
2023-02-06T20:53:59.026Z,0.97
2023-02-06T20:56:27.083Z,0.96
2023-02-06T20:58:54.657Z,0.96
2023-02-06T21:01:26.149Z,1.08
2023-02-06T21:03:59.713Z,1.13
2023-02-06T21:06:28.116Z,1.15
2023-02-06T21:09:00.270Z,1.17
2023-02-06T21:11:30.421Z,1.23
2023-02-06T21:14:01.695Z,1.26
2023-02-06T21:16:30.753Z,1.26
2023-02-06T21:18:59.282Z,1.25
2023-02-06T21:21:26.811Z,1.21
2023-02-06T21:23:55.951Z,1.21
2023-02-06T21:26:27.273Z,1.22
2023-02-06T21:28:55.041Z,1.23
2023-02-06T21:31:37.335Z,1.22
2023-02-06T21:34:11.238Z,1.19
2023-02-06T21:36:39.626Z,1.16
2023-02-06T21:39:08.327Z,1.14
2023-02-06T21:41:36.800Z,1.12
2023-02-06T21:44:04.410Z,1.10
2023-02-06T21:46:32.131Z,1.10
2023-02-06T21:48:59.726Z,1.09
2023-02-06T21:51:27.443Z,1.07
2023-02-06T21:53:56.789Z,1.05
2023-02-06T21:56:26.478Z,1.00
2023-02-06T21:58:56.970Z,0.96
2023-02-06T22:01:29.327Z,0.94
2023-02-06T22:03:57.381Z,0.92
2023-02-06T22:06:24.979Z,0.89
2023-02-06T22:08:54.307Z,0.87
2023-02-06T22:11:29.843Z,0.83
2023-02-06T22:13:59.388Z,0.81
2023-02-06T22:16:27.816Z,0.78
2023-02-06T22:18:55.950Z,0.78
2023-02-06T22:21:25.356Z,0.77
2023-02-06T22:23:55.623Z,0.77
2023-02-06T22:26:24.791Z,0.82
2023-02-06T22:28:52.240Z,0.85
2023-02-06T22:31:23.751Z,0.87
2023-02-06T22:33:51.231Z,0.86
2023-02-06T22:36:21.370Z,0.86
2023-02-06T22:38:53.572Z,0.86
2023-02-06T22:41:21.214Z,0.85
2023-02-06T22:43:50.096Z,0.84
2023-02-06T22:46:23.708Z,0.87
2023-02-06T22:48:51.962Z,0.88
2023-02-06T22:51:20.629Z,0.92
2023-02-06T22:53:48.871Z,0.89
2023-02-06T22:56:28.073Z,0.88
2023-02-06T22:59:02.587Z,0.87
2023-02-06T23:01:33.369Z,0.90
2023-02-06T23:04:01.825Z,0.92
2023-02-06T23:06:31.444Z,0.91
2023-02-06T23:09:00.341Z,0.90
2023-02-06T23:11:28.684Z,0.88
2023-02-06T23:14:01.671Z,0.85
2023-02-06T23:16:31.398Z,0.82
2023-02-06T23:18:59.990Z,0.79
2023-02-06T23:21:27.613Z,0.78
2023-02-06T23:23:56.864Z,0.78
2023-02-06T23:26:24.306Z,0.78
2023-02-06T23:28:51.903Z,0.80
2023-02-06T23:31:19.277Z,0.80
2023-02-06T23:33:46.705Z,0.81
2023-02-06T23:36:20.193Z,0.83
2023-02-06T23:38:48.212Z,0.82
2023-02-06T23:41:18.907Z,0.81
2023-02-06T23:43:51.651Z,0.80
2023-02-06T23:46:20.120Z,0.77
2023-02-06T23:48:48.969Z,0.76
2023-02-06T23:51:17.666Z,0.72
2023-02-06T23:53:45.254Z,0.69
2023-02-06T23:56:15.411Z,0.67
2023-02-06T23:58:42.946Z,0.67
